createdAt,value
2022-07-30T00:02:10.272Z,24.91
2022-07-30T00:04:38.364Z,25.47
2022-07-30T00:07:06.128Z,25.57
2022-07-30T00:09:34.248Z,25.28
2022-07-30T00:12:05.044Z,25.26
2022-07-30T00:14:34.943Z,25.41
2022-07-30T00:17:04.281Z,25.57
2022-07-30T00:19:33.085Z,25.59
2022-07-30T00:22:00.871Z,25.14
2022-07-30T00:24:28.579Z,24.93
2022-07-30T00:26:56.754Z,25.12
2022-07-30T00:29:25.618Z,25.28
2022-07-30T00:31:53.283Z,24.94
2022-07-30T00:34:21.281Z,25.09
2022-07-30T00:36:49.014Z,25.27
2022-07-30T00:39:16.741Z,25.19
2022-07-30T00:42:02.487Z,25.30
2022-07-30T00:44:30.742Z,25.33
2022-07-30T00:46:59.395Z,25.27
2022-07-30T00:49:27.391Z,25.16
2022-07-30T00:51:55.502Z,25.15
2022-07-30T00:54:23.578Z,25.26
2022-07-30T00:56:51.447Z,25.20
2022-07-30T00:59:19.213Z,25.11
2022-07-30T01:01:47.405Z,24.65
2022-07-30T01:04:15.134Z,25.01
2022-07-30T01:06:42.802Z,25.23
2022-07-30T01:09:11.174Z,24.78
2022-07-30T01:11:41.288Z,24.82
2022-07-30T01:14:09.887Z,24.74
2022-07-30T01:16:41.770Z,25.03
2022-07-30T01:19:40.209Z,24.79
2022-07-30T01:22:19.293Z,25.04
2022-07-30T01:25:14.193Z,24.96
2022-07-30T01:27:57.020Z,24.56
2022-07-30T01:30:29.402Z,24.82
2022-07-30T01:32:59.084Z,24.56
2022-07-30T01:35:29.462Z,24.41
2022-07-30T01:38:00.887Z,24.55
2022-07-30T01:40:29.837Z,24.36
2022-07-30T01:43:00.643Z,23.88
2022-07-30T01:45:30.303Z,23.82
2022-07-30T01:48:03.228Z,23.68
2022-07-30T01:50:32.620Z,23.93
2022-07-30T01:53:05.668Z,23.80
2022-07-30T01:55:39.719Z,23.90
2022-07-30T01:58:10.054Z,23.68
2022-07-30T02:00:40.340Z,23.59
2022-07-30T02:03:10.235Z,23.58
2022-07-30T02:05:40.743Z,23.51
2022-07-30T02:08:35.683Z,23.64
2022-07-30T02:11:10.580Z,23.95
2022-07-30T02:13:53.171Z,23.69
2022-07-30T02:16:27.403Z,23.81
2022-07-30T02:18:58.766Z,23.68
2022-07-30T02:21:37.215Z,23.38
2022-07-30T02:24:11.036Z,23.84
2022-07-30T02:26:41.289Z,23.73
2022-07-30T02:29:11.606Z,23.71
2022-07-30T02:31:41.796Z,23.73
2022-07-30T02:34:13.390Z,23.75
2022-07-30T02:36:43.599Z,23.87
2022-07-30T02:39:13.633Z,24.00
2022-07-30T02:41:49.507Z,23.71
2022-07-30T02:44:22.563Z,23.91
2022-07-30T02:46:52.601Z,24.06
2022-07-30T02:49:24.199Z,24.36
2022-07-30T02:51:54.704Z,24.21
2022-07-30T02:54:24.076Z,24.41
2022-07-30T02:56:53.661Z,24.19
2022-07-30T02:59:22.397Z,24.39
2022-07-30T03:01:51.706Z,24.39
2022-07-30T03:04:21.951Z,24.45
2022-07-30T03:06:50.305Z,23.98
2022-07-30T03:09:18.690Z,24.13
2022-07-30T03:11:51.523Z,23.84
2022-07-30T03:14:19.407Z,23.95
2022-07-30T03:16:55.689Z,24.00
2022-07-30T03:19:25.204Z,24.03
2022-07-30T03:21:56.296Z,24.23
2022-07-30T03:24:25.719Z,24.52
2022-07-30T03:26:55.277Z,24.39
2022-07-30T03:29:24.594Z,23.92
2022-07-30T03:31:53.658Z,23.90
2022-07-30T03:34:22.952Z,23.75
2022-07-30T03:36:55.616Z,24.00
2022-07-30T03:39:24.740Z,24.20
2022-07-30T03:41:54.786Z,24.25
2022-07-30T03:44:23.438Z,24.00
2022-07-30T03:46:53.371Z,23.97
2022-07-30T03:49:24.282Z,24.03
2022-07-30T03:51:53.937Z,23.91
2022-07-30T03:54:22.760Z,23.92
2022-07-30T03:56:51.541Z,23.84
2022-07-30T03:59:19.678Z,23.73
2022-07-30T04:01:47.698Z,23.72
2022-07-30T04:04:16.075Z,23.66
2022-07-30T04:06:43.793Z,23.56
2022-07-30T04:09:13.804Z,23.71
2022-07-30T04:11:42.262Z,23.80
2022-07-30T04:14:10.130Z,24.04
2022-07-30T04:16:58.668Z,23.94
2022-07-30T04:19:31.661Z,23.98
2022-07-30T04:22:02.810Z,23.96
2022-07-30T04:24:32.663Z,23.92
2022-07-30T04:27:02.582Z,23.87
2022-07-30T04:29:31.273Z,23.97
2022-07-30T04:31:59.658Z,23.88
2022-07-30T04:34:30.658Z,24.03
2022-07-30T04:36:59.031Z,24.24
2022-07-30T04:39:29.593Z,24.27
2022-07-30T04:41:57.335Z,24.32
2022-07-30T04:44:26.138Z,24.14
2022-07-30T04:46:58.224Z,24.37
2022-07-30T04:49:27.634Z,24.23
2022-07-30T04:51:56.715Z,24.37
2022-07-30T04:54:25.581Z,24.52
2022-07-30T04:56:55.721Z,24.50
2022-07-30T04:59:25.193Z,24.43
2022-07-30T05:01:56.248Z,24.53
2022-07-30T05:04:26.581Z,24.50
2022-07-30T05:06:55.201Z,24.27
2022-07-30T05:09:24.127Z,24.27
2022-07-30T05:11:53.791Z,24.28
2022-07-30T05:14:23.271Z,24.29
2022-07-30T05:16:52.076Z,24.31
2022-07-30T05:19:21.551Z,24.22
2022-07-30T05:21:49.297Z,24.21
2022-07-30T05:24:17.038Z,24.60
2022-07-30T05:26:46.920Z,24.67
2022-07-30T05:29:19.500Z,24.36
2022-07-30T05:31:49.031Z,24.36
2022-07-30T05:34:17.144Z,24.36
2022-07-30T05:36:45.474Z,24.42
2022-07-30T05:39:14.362Z,24.41
2022-07-30T05:41:42.656Z,24.53
2022-07-30T05:44:10.564Z,24.83
2022-07-30T05:46:38.847Z,24.83
2022-07-30T05:49:07.030Z,24.40
2022-07-30T05:51:34.767Z,25.05
2022-07-30T05:54:02.731Z,25.39
2022-07-30T05:56:31.618Z,25.52
2022-07-30T05:59:00.207Z,25.58
2022-07-30T06:01:29.076Z,25.44
2022-07-30T06:03:57.381Z,25.74
2022-07-30T06:06:26.526Z,25.29
2022-07-30T06:08:54.254Z,25.37
2022-07-30T06:11:22.463Z,26.10
2022-07-30T06:13:50.179Z,26.17
2022-07-30T06:16:18.676Z,26.89
2022-07-30T06:18:47.091Z,26.81
2022-07-30T06:21:14.938Z,26.83
2022-07-30T06:23:43.256Z,27.11
2022-07-30T06:26:11.399Z,27.38
2022-07-30T06:28:39.658Z,26.75
2022-07-30T06:31:09.106Z,26.78
2022-07-30T06:33:37.963Z,27.17
2022-07-30T06:36:05.909Z,27.63
2022-07-30T06:38:35.409Z,27.96
2022-07-30T06:41:04.418Z,27.92
2022-07-30T06:43:32.940Z,28.23
2022-07-30T06:46:01.147Z,27.33
2022-07-30T06:48:31.806Z,27.58
2022-07-30T06:51:00.054Z,28.20
2022-07-30T06:53:28.687Z,28.35
2022-07-30T06:56:00.471Z,27.83
2022-07-30T06:58:29.906Z,28.29
2022-07-30T07:00:58.885Z,27.90
2022-07-30T07:03:39.637Z,28.40
2022-07-30T07:06:09.119Z,28.67
2022-07-30T07:08:38.467Z,28.77
2022-07-30T07:11:07.142Z,28.52
2022-07-30T07:13:35.383Z,28.22
2022-07-30T07:16:03.658Z,28.11
2022-07-30T07:18:32.526Z,29.09
2022-07-30T07:21:03.221Z,29.21
2022-07-30T07:23:41.907Z,29.23
2022-07-30T07:26:14.074Z,29.60
2022-07-30T07:28:42.589Z,30.17
2022-07-30T07:31:11.682Z,30.00
2022-07-30T07:34:02.269Z,30.19
2022-07-30T07:36:30.512Z,30.18
2022-07-30T07:38:58.257Z,29.96
2022-07-30T07:41:27.148Z,30.45
2022-07-30T07:43:54.992Z,30.58
2022-07-30T07:46:33.694Z,30.74
2022-07-30T07:49:02.903Z,30.54
2022-07-30T07:51:46.917Z,30.30
2022-07-30T07:54:24.343Z,30.70
2022-07-30T07:56:57.300Z,30.85
2022-07-30T07:59:36.024Z,30.84
2022-07-30T08:02:08.863Z,30.53
2022-07-30T08:04:37.799Z,30.72
2022-07-30T08:07:06.879Z,31.20
2022-07-30T08:09:40.614Z,30.78
2022-07-30T08:12:13.675Z,30.58
2022-07-30T08:14:43.688Z,31.11
2022-07-30T08:17:14.168Z,30.75
2022-07-30T08:19:44.276Z,30.68
2022-07-30T08:22:12.788Z,31.23
2022-07-30T08:24:40.895Z,30.86
2022-07-30T08:27:08.780Z,31.13
2022-07-30T08:29:37.119Z,31.73
2022-07-30T08:32:05.483Z,31.51
2022-07-30T08:34:33.461Z,31.89
2022-07-30T08:37:03.804Z,30.79
2022-07-30T08:39:31.631Z,31.93
2022-07-30T08:42:02.203Z,32.22
2022-07-30T08:44:31.160Z,32.02
2022-07-30T08:47:01.981Z,32.64
2022-07-30T08:49:31.848Z,32.85
2022-07-30T08:52:00.916Z,32.63
2022-07-30T08:54:30.683Z,31.53
2022-07-30T08:56:59.036Z,32.52
2022-07-30T09:00:00.026Z,32.41
2022-07-30T09:02:17.358Z,32.75
2022-07-30T09:04:56.957Z,33.17
2022-07-30T09:07:25.781Z,33.12
2022-07-30T09:09:53.753Z,33.38
2022-07-30T09:12:36.655Z,32.93
2022-07-30T09:15:15.511Z,33.98
2022-07-30T09:17:46.021Z,34.28
2022-07-30T09:20:15.211Z,34.00
2022-07-30T09:22:44.913Z,34.33
2022-07-30T09:25:36.104Z,33.72
2022-07-30T09:28:15.759Z,33.36
2022-07-30T09:31:00.695Z,33.73
2022-07-30T09:33:42.382Z,34.11
2022-07-30T09:36:16.445Z,34.08
2022-07-30T09:38:51.997Z,33.78
2022-07-30T09:41:39.270Z,33.90
2022-07-30T09:44:08.135Z,33.41
2022-07-30T09:46:47.772Z,34.04
2022-07-30T09:49:18.452Z,34.38
2022-07-30T09:51:55.582Z,34.13
2022-07-30T09:54:51.798Z,33.59
2022-07-30T09:57:26.688Z,34.06
2022-07-30T09:59:59.987Z,34.05
2022-07-30T10:02:33.102Z,33.88
2022-07-30T10:05:10.603Z,34.47
2022-07-30T10:07:51.046Z,34.42
2022-07-30T10:10:25.682Z,34.85
2022-07-30T10:12:59.531Z,34.12
2022-07-30T10:15:35.030Z,34.68
2022-07-30T10:18:07.451Z,34.59
2022-07-30T10:20:43.184Z,34.10
2022-07-30T10:23:15.827Z,33.59
2022-07-30T10:26:03.733Z,33.08
2022-07-30T10:28:39.407Z,34.35
2022-07-30T10:31:08.334Z,33.79
2022-07-30T10:33:56.589Z,34.30
2022-07-30T10:36:25.672Z,34.54
2022-07-30T10:38:55.098Z,34.70
2022-07-30T10:41:55.515Z,34.79
2022-07-30T10:44:55.827Z,34.84
2022-07-30T10:47:29.794Z,35.45
2022-07-30T10:50:12.484Z,35.64
2022-07-30T10:52:46.959Z,35.76
2022-07-30T10:55:15.955Z,35.88
2022-07-30T10:58:11.583Z,35.87
2022-07-30T11:00:51.687Z,35.68
2022-07-30T11:03:44.561Z,35.58
2022-07-30T11:06:15.825Z,34.46
2022-07-30T11:08:48.560Z,34.80
2022-07-30T11:12:01.462Z,35.85
2022-07-30T11:14:10.538Z,36.36
2022-07-30T11:16:38.430Z,35.57
2022-07-30T11:19:56.507Z,35.61
2022-07-30T11:22:28.330Z,36.05
2022-07-30T11:24:58.048Z,35.62
2022-07-30T11:27:46.041Z,35.69
2022-07-30T11:30:16.963Z,35.54
2022-07-30T11:32:48.675Z,35.26
2022-07-30T11:35:23.066Z,34.99
2022-07-30T11:37:58.821Z,34.84
2022-07-30T11:40:37.738Z,34.85
2022-07-30T11:43:36.295Z,34.16
2022-07-30T11:46:10.433Z,35.01
2022-07-30T11:48:40.887Z,34.85
2022-07-30T11:51:09.660Z,34.35
2022-07-30T11:53:37.726Z,34.07
2022-07-30T11:56:05.898Z,34.01
2022-07-30T11:58:39.786Z,33.73
2022-07-30T12:01:16.180Z,33.65
2022-07-30T12:03:46.067Z,33.02
2022-07-30T12:06:20.057Z,33.25
2022-07-30T12:08:53.910Z,33.04
2022-07-30T12:11:24.915Z,32.79
2022-07-30T12:13:59.773Z,33.05
2022-07-30T12:16:28.506Z,33.20
2022-07-30T12:19:05.198Z,33.11
2022-07-30T12:21:33.918Z,32.80
2022-07-30T12:24:07.470Z,32.92
2022-07-30T12:26:35.427Z,33.04
2022-07-30T12:29:13.546Z,32.56
2022-07-30T12:31:42.992Z,32.41
2022-07-30T12:34:25.614Z,31.67
2022-07-30T12:36:54.521Z,30.98
2022-07-30T12:39:24.900Z,31.10
2022-07-30T12:41:56.163Z,31.35
2022-07-30T12:44:42.241Z,30.53
2022-07-30T12:47:30.211Z,29.54
2022-07-30T12:50:00.824Z,28.62
2022-07-30T12:52:34.441Z,27.99
2022-07-30T12:55:09.999Z,27.53
2022-07-30T12:58:08.021Z,26.57
2022-07-30T13:00:48.220Z,26.57
2022-07-30T13:03:22.566Z,26.44
2022-07-30T13:05:55.488Z,26.10
2022-07-30T13:08:58.150Z,25.99
2022-07-30T13:11:37.338Z,25.80
2022-07-30T13:14:05.513Z,25.31
2022-07-30T13:16:35.086Z,25.15
2022-07-30T13:19:14.349Z,24.90
2022-07-30T13:21:49.941Z,25.10
2022-07-30T13:24:19.187Z,25.07
2022-07-30T13:26:47.907Z,24.57
2022-07-30T13:29:18.561Z,24.33
2022-07-30T13:31:46.341Z,24.09
2022-07-30T13:34:14.370Z,23.93
2022-07-30T13:36:42.050Z,24.18
2022-07-30T13:39:11.207Z,23.87
2022-07-30T13:41:41.751Z,24.18
2022-07-30T13:44:09.811Z,23.70
2022-07-30T13:46:39.746Z,23.99
2022-07-30T13:49:10.844Z,24.01
2022-07-30T13:51:39.006Z,23.96
2022-07-30T13:54:07.453Z,23.89
2022-07-30T13:56:40.800Z,23.87
2022-07-30T13:59:09.400Z,23.74
2022-07-30T14:01:38.208Z,24.15
2022-07-30T14:04:06.302Z,24.08
2022-07-30T14:06:34.217Z,24.06
2022-07-30T14:09:01.887Z,24.38
2022-07-30T14:11:31.527Z,24.57
2022-07-30T14:13:59.253Z,24.47
2022-07-30T14:16:44.629Z,24.39
2022-07-30T14:19:23.055Z,24.80
2022-07-30T14:21:53.831Z,24.70
2022-07-30T14:24:22.990Z,24.63
2022-07-30T14:26:57.297Z,24.51
2022-07-30T14:29:27.314Z,24.71
2022-07-30T14:31:55.576Z,24.49
2022-07-30T14:34:23.423Z,24.45
2022-07-30T14:36:51.456Z,24.25
2022-07-30T14:39:19.231Z,24.78
2022-07-30T14:41:46.882Z,24.36
2022-07-30T14:44:16.832Z,24.61
2022-07-30T14:46:51.603Z,24.80
2022-07-30T14:49:22.823Z,24.62
2022-07-30T14:51:52.152Z,24.61
2022-07-30T14:54:20.731Z,24.38
2022-07-30T14:56:49.271Z,24.73
2022-07-30T14:59:17.158Z,24.13
2022-07-30T15:01:47.094Z,24.55
2022-07-30T15:04:15.219Z,24.57
2022-07-30T15:06:43.185Z,24.64
2022-07-30T15:09:11.518Z,24.66
2022-07-30T15:12:08.902Z,24.60
2022-07-30T15:14:29.382Z,24.22
2022-07-30T15:17:03.687Z,24.00
2022-07-30T15:19:32.830Z,24.33
2022-07-30T15:22:02.436Z,23.99
2022-07-30T15:24:31.407Z,24.01
2022-07-30T15:26:59.496Z,24.21
2022-07-30T15:29:29.395Z,24.21
2022-07-30T15:32:00.241Z,24.14
2022-07-30T15:34:28.965Z,24.08
2022-07-30T15:36:56.678Z,23.86
2022-07-30T15:39:24.472Z,23.80
2022-07-30T15:41:57.228Z,24.16
2022-07-30T15:44:25.398Z,24.28
2022-07-30T15:46:53.290Z,24.47
2022-07-30T15:49:21.521Z,23.76
2022-07-30T15:51:49.487Z,24.36
2022-07-30T15:54:22.182Z,24.24
2022-07-30T15:56:51.543Z,24.18
2022-07-30T15:59:21.159Z,24.27
2022-07-30T16:01:49.258Z,24.24
2022-07-30T16:04:19.014Z,24.34
2022-07-30T16:06:48.422Z,24.14
2022-07-30T16:09:16.788Z,24.01
2022-07-30T16:11:44.908Z,24.34
2022-07-30T16:14:14.553Z,24.39
2022-07-30T16:16:42.760Z,23.95
2022-07-30T16:19:10.911Z,23.89
2022-07-30T16:21:38.550Z,24.51
2022-07-30T16:24:08.978Z,24.64
2022-07-30T16:26:37.300Z,24.32
2022-07-30T16:29:05.349Z,24.18
2022-07-30T16:31:33.194Z,24.47
2022-07-30T16:34:01.713Z,23.75
2022-07-30T16:36:29.598Z,24.32
2022-07-30T16:38:58.227Z,24.77
2022-07-30T16:41:26.262Z,24.19
2022-07-30T16:43:53.927Z,24.75
2022-07-30T16:46:21.994Z,24.64
2022-07-30T16:48:50.732Z,24.75
2022-07-30T16:51:18.668Z,24.94
2022-07-30T16:53:48.591Z,24.73
2022-07-30T16:56:16.826Z,24.46
2022-07-30T16:58:44.591Z,24.41
2022-07-30T17:01:12.378Z,24.67
2022-07-30T17:03:40.511Z,24.89
2022-07-30T17:06:08.165Z,24.27
2022-07-30T17:08:35.872Z,24.19
2022-07-30T17:11:09.039Z,23.87
2022-07-30T17:13:37.554Z,23.84
2022-07-30T17:16:07.195Z,23.89
2022-07-30T17:18:34.956Z,24.08
2022-07-30T17:21:02.677Z,24.47
2022-07-30T17:23:31.191Z,24.17
2022-07-30T17:25:58.802Z,24.54
2022-07-30T17:28:27.177Z,24.73
2022-07-30T17:30:55.322Z,24.32
2022-07-30T17:33:23.101Z,24.67
2022-07-30T17:35:50.859Z,24.56
2022-07-30T17:38:18.838Z,24.08
2022-07-30T17:40:47.329Z,23.96
2022-07-30T17:43:15.581Z,23.91
2022-07-30T17:45:43.775Z,23.72
2022-07-30T17:48:11.474Z,23.95
2022-07-30T17:50:39.092Z,23.85
2022-07-30T17:53:07.064Z,24.52
2022-07-30T17:55:35.552Z,24.42
2022-07-30T17:58:04.961Z,24.50
2022-07-30T18:00:35.335Z,24.25
2022-07-30T18:03:03.747Z,24.36
2022-07-30T18:05:31.828Z,24.70
2022-07-30T18:07:59.764Z,24.85
2022-07-30T18:10:27.765Z,24.08
2022-07-30T18:12:56.265Z,24.21
2022-07-30T18:15:23.998Z,24.56
2022-07-30T18:17:52.041Z,24.74
2022-07-30T18:20:20.003Z,23.72
2022-07-30T18:22:51.662Z,24.22
2022-07-30T18:25:20.057Z,24.79
2022-07-30T18:27:48.187Z,24.52
2022-07-30T18:30:16.111Z,24.90
2022-07-30T18:32:45.449Z,24.97
2022-07-30T18:35:14.914Z,24.78
2022-07-30T18:37:44.511Z,24.28
2022-07-30T18:40:16.949Z,24.03
2022-07-30T18:42:46.922Z,23.77
2022-07-30T18:45:14.985Z,24.35
2022-07-30T18:47:46.956Z,24.40
2022-07-30T18:50:16.066Z,24.30
2022-07-30T18:52:44.255Z,24.56
2022-07-30T18:55:12.947Z,24.52
2022-07-30T18:57:41.647Z,24.39
2022-07-30T19:00:34.002Z,24.03
2022-07-30T19:03:00.987Z,24.01
2022-07-30T19:05:28.811Z,24.51
2022-07-30T19:07:58.253Z,24.24
2022-07-30T19:10:27.387Z,24.50
2022-07-30T19:12:56.043Z,24.00
2022-07-30T19:15:24.035Z,23.89
2022-07-30T19:17:52.319Z,23.87
2022-07-30T19:20:20.966Z,23.81
2022-07-30T19:22:48.602Z,23.62
2022-07-30T19:25:19.470Z,23.80
2022-07-30T19:27:47.705Z,23.54
2022-07-30T19:30:15.484Z,23.57
2022-07-30T19:32:44.856Z,24.10
2022-07-30T19:35:13.612Z,23.71
2022-07-30T19:37:42.369Z,23.98
2022-07-30T19:40:12.651Z,23.69
2022-07-30T19:42:41.233Z,24.07
2022-07-30T19:45:12.167Z,24.17
2022-07-30T19:47:42.224Z,23.84
2022-07-30T19:50:11.354Z,24.06
2022-07-30T19:52:40.545Z,24.41
2022-07-30T19:55:34.884Z,24.12
2022-07-30T19:58:05.337Z,23.92
2022-07-30T20:00:49.276Z,23.60
2022-07-30T20:03:26.172Z,23.34
2022-07-30T20:06:00.724Z,23.50
2022-07-30T20:08:28.818Z,23.48
2022-07-30T20:10:57.788Z,23.89
2022-07-30T20:13:45.154Z,23.85
2022-07-30T20:16:16.376Z,23.94
2022-07-30T20:18:46.137Z,23.78
2022-07-30T20:21:17.356Z,23.84
2022-07-30T20:23:45.529Z,23.90
2022-07-30T20:26:15.226Z,23.74
2022-07-30T20:28:52.674Z,23.97
2022-07-30T20:31:21.478Z,24.06
2022-07-30T20:33:50.991Z,24.09
2022-07-30T20:36:19.151Z,23.73
2022-07-30T20:38:47.765Z,23.66
2022-07-30T20:41:16.209Z,23.50
2022-07-30T20:43:46.266Z,23.33
2022-07-30T20:46:23.109Z,23.41
2022-07-30T20:48:52.858Z,23.61
2022-07-30T20:51:21.257Z,23.69
2022-07-30T20:53:49.275Z,24.01
2022-07-30T20:56:19.445Z,24.12
2022-07-30T20:58:48.467Z,23.85
2022-07-30T21:01:17.863Z,24.08
2022-07-30T21:03:47.801Z,23.42
2022-07-30T21:06:16.968Z,23.69
2022-07-30T21:08:44.627Z,23.70
2022-07-30T21:11:12.853Z,23.49
2022-07-30T21:13:42.625Z,23.71
2022-07-30T21:16:16.393Z,23.29
2022-07-30T21:18:49.252Z,23.44
2022-07-30T21:21:30.406Z,23.73
2022-07-30T21:24:11.474Z,23.86
2022-07-30T21:26:42.463Z,24.08
2022-07-30T21:29:11.153Z,24.18
2022-07-30T21:32:01.963Z,24.04
2022-07-30T21:34:30.894Z,23.79
2022-07-30T21:37:03.044Z,24.05
2022-07-30T21:39:31.309Z,24.07
2022-07-30T21:42:10.781Z,24.19
2022-07-30T21:44:39.243Z,23.88
2022-07-30T21:47:10.129Z,24.14
2022-07-30T21:49:39.632Z,23.83
2022-07-30T21:52:08.790Z,23.89
2022-07-30T21:54:48.129Z,23.96
2022-07-30T21:57:23.154Z,23.51
2022-07-30T21:59:55.265Z,23.58
2022-07-30T22:02:24.986Z,23.92
2022-07-30T22:04:54.011Z,23.82
2022-07-30T22:07:22.144Z,23.64
2022-07-30T22:09:49.945Z,23.50
2022-07-30T22:12:18.499Z,23.69
2022-07-30T22:14:48.720Z,23.51
2022-07-30T22:17:23.735Z,23.49
2022-07-30T22:20:08.785Z,23.67
2022-07-30T22:22:40.093Z,23.63
2022-07-30T22:25:09.737Z,23.89
2022-07-30T22:27:39.773Z,23.69
2022-07-30T22:30:10.695Z,23.93
2022-07-30T22:32:42.905Z,23.93
2022-07-30T22:35:12.981Z,23.81
2022-07-30T22:37:45.994Z,23.52
2022-07-30T22:40:14.102Z,23.54
2022-07-30T22:42:49.826Z,23.71
2022-07-30T22:45:42.230Z,23.38
2022-07-30T22:48:10.228Z,23.66
2022-07-30T22:50:39.772Z,23.76
2022-07-30T22:53:56.857Z,23.50
2022-07-30T22:55:56.556Z,23.61
2022-07-30T22:58:26.560Z,23.66
2022-07-30T23:00:54.699Z,23.57
2022-07-30T23:03:22.712Z,23.41
2022-07-30T23:05:56.544Z,23.58
2022-07-30T23:08:30.367Z,23.59
2022-07-30T23:10:59.989Z,23.52
2022-07-30T23:13:28.748Z,23.19
2022-07-30T23:15:56.575Z,23.27
2022-07-30T23:18:24.927Z,22.98
2022-07-30T23:20:55.076Z,23.21
2022-07-30T23:23:26.114Z,23.31
2022-07-30T23:25:58.770Z,23.68
2022-07-30T23:28:26.424Z,23.58
2022-07-30T23:30:54.143Z,23.07
2022-07-30T23:33:22.280Z,23.31
2022-07-30T23:35:50.103Z,23.37
2022-07-30T23:38:17.987Z,23.50
2022-07-30T23:40:46.313Z,23.12
2022-07-30T23:43:14.356Z,22.92
2022-07-30T23:45:41.991Z,23.33
2022-07-30T23:48:10.358Z,22.91
2022-07-30T23:50:38.253Z,22.67
2022-07-30T23:53:05.905Z,22.95
2022-07-30T23:55:33.907Z,22.68
2022-07-30T23:58:01.663Z,22.62
